sensor_id;sensor_type;location;lat;lon;timestamp;P1;durP1;ratioP1;P2;durP2;ratioP2
78324;SDS011;67584;51.400;6.692;2023-07-20T00:00:48;5.88;;;3.97;;
78324;SDS011;67584;51.400;6.692;2023-07-20T00:03:18;6.90;;;4.63;;
78324;SDS011;67584;51.400;6.692;2023-07-20T00:05:48;4.47;;;3.78;;
78324;SDS011;67584;51.400;6.692;2023-07-20T00:08:14;5.43;;;4.57;;
78324;SDS011;67584;51.400;6.692;2023-07-20T00:10:41;6.13;;;4.03;;
78324;SDS011;67584;51.400;6.692;2023-07-20T00:13:07;4.38;;;3.85;;
78324;SDS011;67584;51.400;6.692;2023-07-20T00:15:33;4.78;;;3.97;;
78324;SDS011;67584;51.400;6.692;2023-07-20T00:17:58;9.13;;;3.60;;
78324;SDS011;67584;51.400;6.692;2023-07-20T00:20:24;5.75;;;4.35;;
78324;SDS011;67584;51.400;6.692;2023-07-20T00:22:51;7.50;;;4.00;;
78324;SDS011;67584;51.400;6.692;2023-07-20T00:25:17;7.13;;;4.25;;
78324;SDS011;67584;51.400;6.692;2023-07-20T00:27:43;4.60;;;3.70;;
78324;SDS011;67584;51.400;6.692;2023-07-20T00:30:09;4.95;;;4.40;;
78324;SDS011;67584;51.400;6.692;2023-07-20T00:32:35;5.90;;;4.35;;
78324;SDS011;67584;51.400;6.692;2023-07-20T00:35:01;6.40;;;4.05;;
78324;SDS011;67584;51.400;6.692;2023-07-20T00:37:28;5.28;;;4.10;;
78324;SDS011;67584;51.400;6.692;2023-07-20T00:39:54;6.72;;;4.32;;
78324;SDS011;67584;51.400;6.692;2023-07-20T00:42:19;6.38;;;4.30;;
78324;SDS011;67584;51.400;6.692;2023-07-20T00:44:45;8.20;;;4.55;;
78324;SDS011;67584;51.400;6.692;2023-07-20T00:47:11;5.30;;;4.00;;
78324;SDS011;67584;51.400;6.692;2023-07-20T00:49:37;5.63;;;4.00;;
78324;SDS011;67584;51.400;6.692;2023-07-20T00:52:03;5.60;;;4.47;;
78324;SDS011;67584;51.400;6.692;2023-07-20T00:54:32;5.50;;;4.03;;
78324;SDS011;67584;51.400;6.692;2023-07-20T00:56:59;5.15;;;4.65;;
78324;SDS011;67584;51.400;6.692;2023-07-20T00:59:26;6.63;;;4.63;;
78324;SDS011;67584;51.400;6.692;2023-07-20T01:01:52;8.32;;;4.85;;
78324;SDS011;67584;51.400;6.692;2023-07-20T01:04:18;6.35;;;4.38;;
78324;SDS011;67584;51.400;6.692;2023-07-20T01:06:46;5.55;;;3.83;;
78324;SDS011;67584;51.400;6.692;2023-07-20T01:12:13;8.55;;;4.47;;
78324;SDS011;67584;51.400;6.692;2023-07-20T01:14:41;6.85;;;4.57;;
78324;SDS011;67584;51.400;6.692;2023-07-20T01:17:07;4.70;;;4.20;;
78324;SDS011;67584;51.400;6.692;2023-07-20T01:19:33;7.72;;;5.13;;
78324;SDS011;67584;51.400;6.692;2023-07-20T01:30:50;8.30;;;4.32;;
78324;SDS011;67584;51.400;6.692;2023-07-20T01:36:01;8.95;;;4.88;;
78324;SDS011;67584;51.400;6.692;2023-07-20T01:38:28;7.68;;;4.80;;
78324;SDS011;67584;51.400;6.692;2023-07-20T01:40:54;12.70;;;5.22;;
78324;SDS011;67584;51.400;6.692;2023-07-20T01:43:20;7.50;;;4.30;;
78324;SDS011;67584;51.400;6.692;2023-07-20T01:45:47;7.72;;;4.53;;
78324;SDS011;67584;51.400;6.692;2023-07-20T01:48:12;9.48;;;5.53;;
78324;SDS011;67584;51.400;6.692;2023-07-20T01:50:38;10.90;;;5.50;;
78324;SDS011;67584;51.400;6.692;2023-07-20T01:53:04;8.63;;;5.60;;
78324;SDS011;67584;51.400;6.692;2023-07-20T01:55:29;8.35;;;4.40;;
78324;SDS011;67584;51.400;6.692;2023-07-20T01:57:55;7.32;;;4.63;;
78324;SDS011;67584;51.400;6.692;2023-07-20T02:00:21;8.80;;;4.63;;
78324;SDS011;67584;51.400;6.692;2023-07-20T02:02:50;6.75;;;4.97;;
78324;SDS011;67584;51.400;6.692;2023-07-20T02:05:16;6.30;;;5.03;;
78324;SDS011;67584;51.400;6.692;2023-07-20T02:07:42;8.32;;;5.38;;
78324;SDS011;67584;51.400;6.692;2023-07-20T02:10:08;9.15;;;5.75;;
78324;SDS011;67584;51.400;6.692;2023-07-20T02:12:34;7.70;;;5.05;;
78324;SDS011;67584;51.400;6.692;2023-07-20T02:15:01;9.63;;;5.70;;
78324;SDS011;67584;51.400;6.692;2023-07-20T02:17:27;7.75;;;4.72;;
78324;SDS011;67584;51.400;6.692;2023-07-20T02:19:52;7.70;;;5.30;;
78324;SDS011;67584;51.400;6.692;2023-07-20T02:22:20;8.18;;;5.47;;
78324;SDS011;67584;51.400;6.692;2023-07-20T02:24:46;10.07;;;5.38;;
78324;SDS011;67584;51.400;6.692;2023-07-20T02:27:12;8.20;;;5.57;;
78324;SDS011;67584;51.400;6.692;2023-07-20T02:29:38;10.50;;;5.90;;
78324;SDS011;67584;51.400;6.692;2023-07-20T02:32:06;7.93;;;5.93;;
78324;SDS011;67584;51.400;6.692;2023-07-20T02:34:32;6.53;;;5.03;;
78324;SDS011;67584;51.400;6.692;2023-07-20T02:36:58;9.07;;;5.50;;
78324;SDS011;67584;51.400;6.692;2023-07-20T02:39:29;9.73;;;5.80;;
78324;SDS011;67584;51.400;6.692;2023-07-20T02:41:55;7.70;;;6.00;;
78324;SDS011;67584;51.400;6.692;2023-07-20T02:44:21;8.43;;;5.80;;
78324;SDS011;67584;51.400;6.692;2023-07-20T02:46:47;8.18;;;5.80;;
78324;SDS011;67584;51.400;6.692;2023-07-20T02:49:15;8.45;;;5.22;;
78324;SDS011;67584;51.400;6.692;2023-07-20T02:51:41;11.40;;;6.00;;
78324;SDS011;67584;51.400;6.692;2023-07-20T02:54:07;8.48;;;5.50;;
78324;SDS011;67584;51.400;6.692;2023-07-20T02:56:33;9.27;;;6.45;;
78324;SDS011;67584;51.400;6.692;2023-07-20T02:59:00;10.10;;;5.82;;
78324;SDS011;67584;51.400;6.692;2023-07-20T03:01:26;7.97;;;5.68;;
78324;SDS011;67584;51.400;6.692;2023-07-20T03:03:54;11.18;;;6.40;;
78324;SDS011;67584;51.400;6.692;2023-07-20T03:08:48;9.55;;;6.00;;
78324;SDS011;67584;51.400;6.692;2023-07-20T03:11:17;10.43;;;6.68;;
78324;SDS011;67584;51.400;6.692;2023-07-20T03:13:44;8.10;;;6.20;;
78324;SDS011;67584;51.400;6.692;2023-07-20T03:16:10;8.32;;;5.68;;
78324;SDS011;67584;51.400;6.692;2023-07-20T03:18:37;8.75;;;5.18;;
78324;SDS011;67584;51.400;6.692;2023-07-20T03:21:04;8.10;;;6.07;;
78324;SDS011;67584;51.400;6.692;2023-07-20T03:23:31;11.70;;;6.07;;
78324;SDS011;67584;51.400;6.692;2023-07-20T03:25:57;9.05;;;5.95;;
78324;SDS011;67584;51.400;6.692;2023-07-20T03:28:22;11.13;;;6.45;;
78324;SDS011;67584;51.400;6.692;2023-07-20T03:30:55;11.05;;;7.35;;
78324;SDS011;67584;51.400;6.692;2023-07-20T03:33:22;9.95;;;5.70;;
78324;SDS011;67584;51.400;6.692;2023-07-20T03:35:52;9.98;;;6.60;;
78324;SDS011;67584;51.400;6.692;2023-07-20T03:38:18;10.32;;;6.20;;
78324;SDS011;67584;51.400;6.692;2023-07-20T03:40:50;9.23;;;6.35;;
78324;SDS011;67584;51.400;6.692;2023-07-20T03:43:16;11.07;;;6.82;;
78324;SDS011;67584;51.400;6.692;2023-07-20T03:45:43;9.68;;;6.53;;
78324;SDS011;67584;51.400;6.692;2023-07-20T03:48:11;10.70;;;6.55;;
78324;SDS011;67584;51.400;6.692;2023-07-20T03:50:37;11.20;;;6.55;;
78324;SDS011;67584;51.400;6.692;2023-07-20T03:53:03;9.35;;;6.45;;
78324;SDS011;67584;51.400;6.692;2023-07-20T03:55:29;11.88;;;7.68;;
78324;SDS011;67584;51.400;6.692;2023-07-20T03:57:55;12.88;;;7.80;;
78324;SDS011;67584;51.400;6.692;2023-07-20T04:00:20;11.25;;;7.95;;
78324;SDS011;67584;51.400;6.692;2023-07-20T04:02:48;10.35;;;7.55;;
78324;SDS011;67584;51.400;6.692;2023-07-20T04:05:14;12.52;;;8.07;;
78324;SDS011;67584;51.400;6.692;2023-07-20T04:07:40;12.68;;;8.15;;
78324;SDS011;67584;51.400;6.692;2023-07-20T04:10:06;12.57;;;7.60;;
78324;SDS011;67584;51.400;6.692;2023-07-20T04:12:34;13.43;;;8.63;;
78324;SDS011;67584;51.400;6.692;2023-07-20T04:15:00;13.13;;;8.05;;
78324;SDS011;67584;51.400;6.692;2023-07-20T04:17:27;12.25;;;7.63;;
78324;SDS011;67584;51.400;6.692;2023-07-20T04:19:52;13.10;;;7.90;;
78324;SDS011;67584;51.400;6.692;2023-07-20T04:22:18;13.02;;;8.18;;
78324;SDS011;67584;51.400;6.692;2023-07-20T04:24:43;12.55;;;7.93;;
78324;SDS011;67584;51.400;6.692;2023-07-20T04:27:09;11.30;;;8.27;;
78324;SDS011;67584;51.400;6.692;2023-07-20T04:29:35;10.98;;;7.80;;
78324;SDS011;67584;51.400;6.692;2023-07-20T04:32:00;14.73;;;8.88;;
78324;SDS011;67584;51.400;6.692;2023-07-20T04:34:26;11.57;;;8.18;;
78324;SDS011;67584;51.400;6.692;2023-07-20T04:36:53;10.57;;;7.80;;
78324;SDS011;67584;51.400;6.692;2023-07-20T04:39:19;11.38;;;8.13;;
78324;SDS011;67584;51.400;6.692;2023-07-20T04:41:45;13.82;;;8.07;;
78324;SDS011;67584;51.400;6.692;2023-07-20T04:44:11;12.48;;;7.82;;
78324;SDS011;67584;51.400;6.692;2023-07-20T04:46:38;12.40;;;7.80;;
78324;SDS011;67584;51.400;6.692;2023-07-20T04:49:05;12.50;;;8.77;;
78324;SDS011;67584;51.400;6.692;2023-07-20T04:51:35;13.95;;;8.55;;
78324;SDS011;67584;51.400;6.692;2023-07-20T04:54:01;16.52;;;9.15;;
78324;SDS011;67584;51.400;6.692;2023-07-20T04:56:31;12.52;;;8.02;;
78324;SDS011;67584;51.400;6.692;2023-07-20T04:58:58;13.23;;;9.80;;
78324;SDS011;67584;51.400;6.692;2023-07-20T05:01:24;13.88;;;8.93;;
78324;SDS011;67584;51.400;6.692;2023-07-20T05:03:52;13.52;;;8.68;;
78324;SDS011;67584;51.400;6.692;2023-07-20T05:06:18;15.95;;;10.07;;
78324;SDS011;67584;51.400;6.692;2023-07-20T05:08:45;14.40;;;9.25;;
78324;SDS011;67584;51.400;6.692;2023-07-20T05:11:11;15.23;;;9.85;;
78324;SDS011;67584;51.400;6.692;2023-07-20T05:13:37;14.27;;;9.48;;
78324;SDS011;67584;51.400;6.692;2023-07-20T05:16:03;14.38;;;9.40;;
78324;SDS011;67584;51.400;6.692;2023-07-20T05:18:29;13.63;;;9.68;;
78324;SDS011;67584;51.400;6.692;2023-07-20T05:20:56;12.80;;;8.75;;
78324;SDS011;67584;51.400;6.692;2023-07-20T05:23:21;13.52;;;9.88;;
78324;SDS011;67584;51.400;6.692;2023-07-20T05:25:53;14.90;;;9.68;;
78324;SDS011;67584;51.400;6.692;2023-07-20T05:28:25;12.02;;;9.55;;
78324;SDS011;67584;51.400;6.692;2023-07-20T05:30:52;14.98;;;10.23;;
78324;SDS011;67584;51.400;6.692;2023-07-20T05:33:19;12.77;;;9.85;;
78324;SDS011;67584;51.400;6.692;2023-07-20T05:35:47;14.15;;;9.98;;
78324;SDS011;67584;51.400;6.692;2023-07-20T05:38:13;13.30;;;8.70;;
78324;SDS011;67584;51.400;6.692;2023-07-20T05:40:44;10.07;;;8.65;;
78324;SDS011;67584;51.400;6.692;2023-07-20T05:43:10;12.23;;;9.10;;
78324;SDS011;67584;51.400;6.692;2023-07-20T05:45:36;12.18;;;9.00;;
78324;SDS011;67584;51.400;6.692;2023-07-20T05:48:02;12.77;;;9.07;;
78324;SDS011;67584;51.400;6.692;2023-07-20T05:50:28;12.02;;;9.13;;
78324;SDS011;67584;51.400;6.692;2023-07-20T05:52:54;11.55;;;9.18;;
78324;SDS011;67584;51.400;6.692;2023-07-20T05:55:19;11.40;;;8.68;;
78324;SDS011;67584;51.400;6.692;2023-07-20T05:57:45;12.73;;;9.48;;
78324;SDS011;67584;51.400;6.692;2023-07-20T06:00:13;12.60;;;8.27;;
78324;SDS011;67584;51.400;6.692;2023-07-20T06:02:41;12.52;;;8.45;;
78324;SDS011;67584;51.400;6.692;2023-07-20T06:05:07;9.85;;;7.90;;
78324;SDS011;67584;51.400;6.692;2023-07-20T06:07:37;11.95;;;8.02;;
78324;SDS011;67584;51.400;6.692;2023-07-20T06:10:03;12.25;;;8.50;;
78324;SDS011;67584;51.400;6.692;2023-07-20T06:12:29;10.35;;;8.38;;
78324;SDS011;67584;51.400;6.692;2023-07-20T06:14:54;11.55;;;8.48;;
78324;SDS011;67584;51.400;6.692;2023-07-20T06:17:20;11.02;;;8.30;;
78324;SDS011;67584;51.400;6.692;2023-07-20T06:19:46;10.35;;;8.20;;
78324;SDS011;67584;51.400;6.692;2023-07-20T06:22:12;8.50;;;6.78;;
78324;SDS011;67584;51.400;6.692;2023-07-20T06:24:38;9.68;;;7.50;;
78324;SDS011;67584;51.400;6.692;2023-07-20T06:27:03;9.60;;;7.38;;
78324;SDS011;67584;51.400;6.692;2023-07-20T06:29:30;9.25;;;7.10;;
78324;SDS011;67584;51.400;6.692;2023-07-20T06:31:56;8.90;;;6.90;;
78324;SDS011;67584;51.400;6.692;2023-07-20T06:34:22;10.30;;;7.75;;
78324;SDS011;67584;51.400;6.692;2023-07-20T06:36:47;8.73;;;7.60;;
78324;SDS011;67584;51.400;6.692;2023-07-20T06:39:14;10.43;;;9.18;;
78324;SDS011;67584;51.400;6.692;2023-07-20T06:41:43;10.48;;;8.35;;
78324;SDS011;67584;51.400;6.692;2023-07-20T06:44:08;12.02;;;8.85;;
78324;SDS011;67584;51.400;6.692;2023-07-20T06:46:34;11.05;;;8.00;;
78324;SDS011;67584;51.400;6.692;2023-07-20T06:49:00;11.13;;;9.00;;
78324;SDS011;67584;51.400;6.692;2023-07-20T06:51:25;11.13;;;8.80;;
78324;SDS011;67584;51.400;6.692;2023-07-20T06:53:51;9.02;;;8.05;;
78324;SDS011;67584;51.400;6.692;2023-07-20T06:56:17;9.20;;;8.27;;
78324;SDS011;67584;51.400;6.692;2023-07-20T06:58:43;8.15;;;6.80;;
78324;SDS011;67584;51.400;6.692;2023-07-20T07:01:08;7.78;;;6.97;;
78324;SDS011;67584;51.400;6.692;2023-07-20T07:03:34;7.93;;;6.15;;
78324;SDS011;67584;51.400;6.692;2023-07-20T07:06:00;4.70;;;4.20;;
78324;SDS011;67584;51.400;6.692;2023-07-20T07:08:26;5.82;;;3.83;;
78324;SDS011;67584;51.400;6.692;2023-07-20T07:10:51;4.97;;;4.53;;
78324;SDS011;67584;51.400;6.692;2023-07-20T07:13:17;3.90;;;3.50;;
78324;SDS011;67584;51.400;6.692;2023-07-20T07:15:44;7.28;;;3.45;;
78324;SDS011;67584;51.400;6.692;2023-07-20T07:18:10;4.72;;;3.30;;
78324;SDS011;67584;51.400;6.692;2023-07-20T07:20:36;3.50;;;2.92;;
78324;SDS011;67584;51.400;6.692;2023-07-20T07:23:02;3.05;;;2.60;;
78324;SDS011;67584;51.400;6.692;2023-07-20T07:25:27;3.20;;;2.90;;
78324;SDS011;67584;51.400;6.692;2023-07-20T07:27:53;3.45;;;3.15;;
78324;SDS011;67584;51.400;6.692;2023-07-20T07:30:20;4.10;;;3.72;;
78324;SDS011;67584;51.400;6.692;2023-07-20T07:32:46;4.15;;;3.63;;
78324;SDS011;67584;51.400;6.692;2023-07-20T07:35:12;4.47;;;4.07;;
78324;SDS011;67584;51.400;6.692;2023-07-20T07:37:37;4.28;;;3.60;;
78324;SDS011;67584;51.400;6.692;2023-07-20T07:40:03;6.10;;;4.68;;
78324;SDS011;67584;51.400;6.692;2023-07-20T07:42:31;8.30;;;6.75;;
78324;SDS011;67584;51.400;6.692;2023-07-20T07:44:56;7.72;;;6.15;;
78324;SDS011;67584;51.400;6.692;2023-07-20T07:47:22;8.10;;;5.80;;
78324;SDS011;67584;51.400;6.692;2023-07-20T07:49:48;7.05;;;6.07;;
78324;SDS011;67584;51.400;6.692;2023-07-20T07:52:14;8.45;;;7.18;;
78324;SDS011;67584;51.400;6.692;2023-07-20T07:54:39;7.63;;;6.55;;
78324;SDS011;67584;51.400;6.692;2023-07-20T07:57:05;7.50;;;6.10;;
78324;SDS011;67584;51.400;6.692;2023-07-20T07:59:31;5.20;;;4.70;;
78324;SDS011;67584;51.400;6.692;2023-07-20T08:02:01;5.18;;;4.40;;
78324;SDS011;67584;51.400;6.692;2023-07-20T08:04:29;4.82;;;3.95;;
78324;SDS011;67584;51.400;6.692;2023-07-20T08:06:55;5.40;;;3.53;;
78324;SDS011;67584;51.400;6.692;2023-07-20T08:09:21;4.57;;;3.85;;
78324;SDS011;67584;51.400;6.692;2023-07-20T08:11:46;3.83;;;3.15;;
78324;SDS011;67584;51.400;6.692;2023-07-20T08:14:13;3.90;;;2.88;;
78324;SDS011;67584;51.400;6.692;2023-07-20T08:16:39;3.67;;;3.22;;
78324;SDS011;67584;51.400;6.692;2023-07-20T08:19:04;4.57;;;3.17;;
78324;SDS011;67584;51.400;6.692;2023-07-20T08:21:30;4.97;;;3.78;;
78324;SDS011;67584;51.400;6.692;2023-07-20T08:23:56;3.85;;;3.45;;
78324;SDS011;67584;51.400;6.692;2023-07-20T08:26:23;4.38;;;3.47;;
78324;SDS011;67584;51.400;6.692;2023-07-20T08:28:48;3.97;;;3.60;;
78324;SDS011;67584;51.400;6.692;2023-07-20T08:31:14;5.38;;;3.53;;
78324;SDS011;67584;51.400;6.692;2023-07-20T08:33:40;4.65;;;4.00;;
78324;SDS011;67584;51.400;6.692;2023-07-20T08:36:05;4.07;;;3.15;;
78324;SDS011;67584;51.400;6.692;2023-07-20T08:38:31;3.97;;;3.40;;
78324;SDS011;67584;51.400;6.692;2023-07-20T08:40:57;4.18;;;3.20;;
78324;SDS011;67584;51.400;6.692;2023-07-20T08:43:25;5.25;;;3.75;;
78324;SDS011;67584;51.400;6.692;2023-07-20T08:45:53;4.20;;;3.00;;
78324;SDS011;67584;51.400;6.692;2023-07-20T08:48:21;5.53;;;4.13;;
78324;SDS011;67584;51.400;6.692;2023-07-20T08:50:48;7.07;;;4.97;;
78324;SDS011;67584;51.400;6.692;2023-07-20T08:53:16;6.28;;;5.10;;
78324;SDS011;67584;51.400;6.692;2023-07-20T08:55:43;5.25;;;4.30;;
78324;SDS011;67584;51.400;6.692;2023-07-20T08:58:11;6.20;;;4.70;;
78324;SDS011;67584;51.400;6.692;2023-07-20T09:00:37;6.25;;;4.85;;
78324;SDS011;67584;51.400;6.692;2023-07-20T09:03:04;4.05;;;3.55;;
78324;SDS011;67584;51.400;6.692;2023-07-20T09:05:30;5.60;;;3.83;;
78324;SDS011;67584;51.400;6.692;2023-07-20T09:07:56;3.90;;;2.83;;
78324;SDS011;67584;51.400;6.692;2023-07-20T09:10:23;3.00;;;2.38;;
78324;SDS011;67584;51.400;6.692;2023-07-20T09:12:49;3.78;;;2.75;;
78324;SDS011;67584;51.400;6.692;2023-07-20T09:15:15;3.40;;;2.65;;
78324;SDS011;67584;51.400;6.692;2023-07-20T09:17:48;3.00;;;2.58;;
78324;SDS011;67584;51.400;6.692;2023-07-20T09:20:15;3.72;;;2.70;;
78324;SDS011;67584;51.400;6.692;2023-07-20T09:22:42;3.30;;;2.40;;
78324;SDS011;67584;51.400;6.692;2023-07-20T09:25:11;2.50;;;2.30;;
78324;SDS011;67584;51.400;6.692;2023-07-20T09:27:41;3.47;;;2.20;;
78324;SDS011;67584;51.400;6.692;2023-07-20T09:30:08;2.15;;;1.90;;
78324;SDS011;67584;51.400;6.692;2023-07-20T09:32:40;2.50;;;2.10;;
78324;SDS011;67584;51.400;6.692;2023-07-20T09:35:18;2.55;;;2.08;;
78324;SDS011;67584;51.400;6.692;2023-07-20T09:37:55;2.22;;;2.03;;
78324;SDS011;67584;51.400;6.692;2023-07-20T09:40:24;1.80;;;1.70;;
78324;SDS011;67584;51.400;6.692;2023-07-20T09:42:51;1.60;;;1.50;;
78324;SDS011;67584;51.400;6.692;2023-07-20T09:45:18;2.08;;;1.88;;
78324;SDS011;67584;51.400;6.692;2023-07-20T09:47:44;1.70;;;1.60;;
78324;SDS011;67584;51.400;6.692;2023-07-20T09:50:11;2.35;;;1.80;;
78324;SDS011;67584;51.400;6.692;2023-07-20T09:52:40;2.10;;;1.35;;
78324;SDS011;67584;51.400;6.692;2023-07-20T09:55:07;1.60;;;1.50;;
78324;SDS011;67584;51.400;6.692;2023-07-20T09:57:34;2.42;;;1.40;;
78324;SDS011;67584;51.400;6.692;2023-07-20T10:00:01;2.08;;;1.88;;
78324;SDS011;67584;51.400;6.692;2023-07-20T10:02:37;1.60;;;1.50;;
78324;SDS011;67584;51.400;6.692;2023-07-20T10:05:08;1.90;;;1.63;;
78324;SDS011;67584;51.400;6.692;2023-07-20T10:07:48;2.00;;;1.50;;
78324;SDS011;67584;51.400;6.692;2023-07-20T10:10:16;3.25;;;2.05;;
78324;SDS011;67584;51.400;6.692;2023-07-20T10:12:42;2.67;;;1.90;;
78324;SDS011;67584;51.400;6.692;2023-07-20T10:15:13;3.03;;;1.75;;
78324;SDS011;67584;51.400;6.692;2023-07-20T10:17:48;1.92;;;1.70;;
78324;SDS011;67584;51.400;6.692;2023-07-20T10:20:36;1.90;;;1.70;;
78324;SDS011;67584;51.400;6.692;2023-07-20T10:23:04;1.80;;;1.52;;
78324;SDS011;67584;51.400;6.692;2023-07-20T10:25:31;1.65;;;1.40;;
78324;SDS011;67584;51.400;6.692;2023-07-20T10:27:58;2.10;;;1.70;;
78324;SDS011;67584;51.400;6.692;2023-07-20T10:30:24;2.58;;;1.65;;
78324;SDS011;67584;51.400;6.692;2023-07-20T10:32:51;1.55;;;1.42;;
78324;SDS011;67584;51.400;6.692;2023-07-20T10:35:17;3.15;;;1.83;;
78324;SDS011;67584;51.400;6.692;2023-07-20T10:37:54;2.33;;;1.63;;
78324;SDS011;67584;51.400;6.692;2023-07-20T10:40:25;1.92;;;1.73;;
78324;SDS011;67584;51.400;6.692;2023-07-20T10:43:02;1.67;;;1.50;;
78324;SDS011;67584;51.400;6.692;2023-07-20T10:50:41;1.70;;;1.50;;
78324;SDS011;67584;51.400;6.692;2023-07-20T10:55:37;3.00;;;1.77;;
78324;SDS011;67584;51.400;6.692;2023-07-20T10:58:22;2.60;;;1.70;;
78324;SDS011;67584;51.400;6.692;2023-07-20T11:01:03;2.60;;;1.60;;
78324;SDS011;67584;51.400;6.692;2023-07-20T11:03:30;1.98;;;1.50;;
78324;SDS011;67584;51.400;6.692;2023-07-20T11:05:57;4.00;;;1.63;;
78324;SDS011;67584;51.400;6.692;2023-07-20T11:11:29;1.83;;;1.67;;
78324;SDS011;67584;51.400;6.692;2023-07-20T11:14:02;1.90;;;1.52;;
78324;SDS011;67584;51.400;6.692;2023-07-20T11:16:32;1.98;;;1.77;;
78324;SDS011;67584;51.400;6.692;2023-07-20T11:19:00;2.20;;;1.60;;
78324;SDS011;67584;51.400;6.692;2023-07-20T11:21:26;1.73;;;1.50;;
78324;SDS011;67584;51.400;6.692;2023-07-20T11:23:52;1.60;;;1.42;;
78324;SDS011;67584;51.400;6.692;2023-07-20T11:26:18;1.65;;;1.40;;
78324;SDS011;67584;51.400;6.692;2023-07-20T11:28:50;2.00;;;1.58;;
78324;SDS011;67584;51.400;6.692;2023-07-20T11:31:17;1.80;;;1.40;;
78324;SDS011;67584;51.400;6.692;2023-07-20T11:33:43;1.88;;;1.52;;
78324;SDS011;67584;51.400;6.692;2023-07-20T11:36:09;2.10;;;1.52;;
78324;SDS011;67584;51.400;6.692;2023-07-20T11:38:35;1.90;;;1.63;;
78324;SDS011;67584;51.400;6.692;2023-07-20T11:41:04;2.17;;;1.98;;
78324;SDS011;67584;51.400;6.692;2023-07-20T11:43:29;3.08;;;1.92;;
78324;SDS011;67584;51.400;6.692;2023-07-20T11:45:55;1.58;;;1.48;;
78324;SDS011;67584;51.400;6.692;2023-07-20T11:48:21;1.75;;;1.65;;
78324;SDS011;67584;51.400;6.692;2023-07-20T11:50:47;2.35;;;1.75;;
78324;SDS011;67584;51.400;6.692;2023-07-20T11:53:13;2.05;;;1.85;;
78324;SDS011;67584;51.400;6.692;2023-07-20T11:55:40;2.17;;;1.63;;
78324;SDS011;67584;51.400;6.692;2023-07-20T11:58:06;3.08;;;1.65;;
78324;SDS011;67584;51.400;6.692;2023-07-20T12:00:33;1.65;;;1.55;;
78324;SDS011;67584;51.400;6.692;2023-07-20T12:03:00;1.52;;;1.42;;
78324;SDS011;67584;51.400;6.692;2023-07-20T12:05:26;1.60;;;1.50;;
78324;SDS011;67584;51.400;6.692;2023-07-20T12:07:51;1.75;;;1.65;;
78324;SDS011;67584;51.400;6.692;2023-07-20T12:10:23;1.52;;;1.42;;
78324;SDS011;67584;51.400;6.692;2023-07-20T12:12:50;1.67;;;1.58;;
78324;SDS011;67584;51.400;6.692;2023-07-20T12:15:17;1.92;;;1.60;;
78324;SDS011;67584;51.400;6.692;2023-07-20T12:17:46;1.90;;;1.52;;
78324;SDS011;67584;51.400;6.692;2023-07-20T12:20:24;1.95;;;1.63;;
78324;SDS011;67584;51.400;6.692;2023-07-20T12:22:51;1.50;;;1.40;;
78324;SDS011;67584;51.400;6.692;2023-07-20T12:25:16;1.88;;;1.40;;
78324;SDS011;67584;51.400;6.692;2023-07-20T12:27:45;1.45;;;1.35;;
78324;SDS011;67584;51.400;6.692;2023-07-20T12:30:10;2.83;;;1.50;;
78324;SDS011;67584;51.400;6.692;2023-07-20T12:32:38;1.30;;;1.20;;
78324;SDS011;67584;51.400;6.692;2023-07-20T12:35:04;1.70;;;1.60;;
78324;SDS011;67584;51.400;6.692;2023-07-20T12:37:31;1.40;;;1.30;;
78324;SDS011;67584;51.400;6.692;2023-07-20T12:39:57;2.08;;;1.52;;
78324;SDS011;67584;51.400;6.692;2023-07-20T12:42:22;2.20;;;1.58;;
78324;SDS011;67584;51.400;6.692;2023-07-20T12:44:49;1.75;;;1.50;;
78324;SDS011;67584;51.400;6.692;2023-07-20T12:47:16;1.58;;;1.33;;
78324;SDS011;67584;51.400;6.692;2023-07-20T12:49:43;2.17;;;1.63;;
78324;SDS011;67584;51.400;6.692;2023-07-20T12:52:10;1.60;;;1.50;;
78324;SDS011;67584;51.400;6.692;2023-07-20T12:54:36;2.13;;;1.55;;
78324;SDS011;67584;51.400;6.692;2023-07-20T12:57:02;1.70;;;1.60;;
78324;SDS011;67584;51.400;6.692;2023-07-20T12:59:28;1.88;;;1.70;;
78324;SDS011;67584;51.400;6.692;2023-07-20T13:01:54;1.70;;;1.60;;
78324;SDS011;67584;51.400;6.692;2023-07-20T13:04:20;1.70;;;1.60;;
78324;SDS011;67584;51.400;6.692;2023-07-20T13:06:45;1.63;;;1.52;;
78324;SDS011;67584;51.400;6.692;2023-07-20T13:09:11;1.95;;;1.60;;
78324;SDS011;67584;51.400;6.692;2023-07-20T13:11:37;1.70;;;1.50;;
78324;SDS011;67584;51.400;6.692;2023-07-20T13:14:02;1.50;;;1.40;;
78324;SDS011;67584;51.400;6.692;2023-07-20T13:16:28;1.77;;;1.60;;
78324;SDS011;67584;51.400;6.692;2023-07-20T13:18:53;1.80;;;1.55;;
78324;SDS011;67584;51.400;6.692;2023-07-20T13:21:19;1.73;;;1.45;;
78324;SDS011;67584;51.400;6.692;2023-07-20T13:23:47;1.90;;;1.50;;
78324;SDS011;67584;51.400;6.692;2023-07-20T13:26:14;1.48;;;1.38;;
78324;SDS011;67584;51.400;6.692;2023-07-20T13:28:40;2.10;;;1.50;;
78324;SDS011;67584;51.400;6.692;2023-07-20T13:31:06;2.25;;;1.50;;
78324;SDS011;67584;51.400;6.692;2023-07-20T13:33:34;1.80;;;1.60;;
78324;SDS011;67584;51.400;6.692;2023-07-20T13:36:00;1.60;;;1.50;;
78324;SDS011;67584;51.400;6.692;2023-07-20T13:38:26;1.80;;;1.70;;
78324;SDS011;67584;51.400;6.692;2023-07-20T13:40:51;1.60;;;1.50;;
78324;SDS011;67584;51.400;6.692;2023-07-20T13:43:17;1.70;;;1.60;;
78324;SDS011;67584;51.400;6.692;2023-07-20T13:45:43;1.95;;;1.80;;
78324;SDS011;67584;51.400;6.692;2023-07-20T13:48:08;1.80;;;1.60;;
78324;SDS011;67584;51.400;6.692;2023-07-20T13:50:34;2.17;;;1.30;;
78324;SDS011;67584;51.400;6.692;2023-07-20T13:53:00;1.63;;;1.52;;
78324;SDS011;67584;51.400;6.692;2023-07-20T13:55:27;1.55;;;1.40;;
78324;SDS011;67584;51.400;6.692;2023-07-20T13:57:53;1.70;;;1.50;;
78324;SDS011;67584;51.400;6.692;2023-07-20T14:00:19;4.10;;;1.60;;
78324;SDS011;67584;51.400;6.692;2023-07-20T14:02:45;2.13;;;1.88;;
78324;SDS011;67584;51.400;6.692;2023-07-20T14:05:10;2.25;;;1.80;;
78324;SDS011;67584;51.400;6.692;2023-07-20T14:07:36;1.63;;;1.42;;
78324;SDS011;67584;51.400;6.692;2023-07-20T14:10:02;2.00;;;1.50;;
78324;SDS011;67584;51.400;6.692;2023-07-20T14:12:28;2.15;;;1.92;;
78324;SDS011;67584;51.400;6.692;2023-07-20T14:14:54;2.40;;;1.70;;
78324;SDS011;67584;51.400;6.692;2023-07-20T14:17:21;1.70;;;1.60;;
78324;SDS011;67584;51.400;6.692;2023-07-20T14:19:46;1.88;;;1.60;;
78324;SDS011;67584;51.400;6.692;2023-07-20T14:22:12;2.22;;;1.83;;
78324;SDS011;67584;51.400;6.692;2023-07-20T14:24:38;1.65;;;1.50;;
78324;SDS011;67584;51.400;6.692;2023-07-20T14:27:04;2.33;;;2.05;;
78324;SDS011;67584;51.400;6.692;2023-07-20T14:29:29;2.22;;;2.03;;
78324;SDS011;67584;51.400;6.692;2023-07-20T14:31:56;1.83;;;1.73;;
78324;SDS011;67584;51.400;6.692;2023-07-20T14:34:22;2.10;;;1.73;;
78324;SDS011;67584;51.400;6.692;2023-07-20T14:36:48;2.67;;;1.92;;
78324;SDS011;67584;51.400;6.692;2023-07-20T14:39:15;1.70;;;1.60;;
78324;SDS011;67584;51.400;6.692;2023-07-20T14:41:40;2.47;;;1.90;;
78324;SDS011;67584;51.400;6.692;2023-07-20T14:44:06;1.83;;;1.58;;
78324;SDS011;67584;51.400;6.692;2023-07-20T14:46:32;3.65;;;1.75;;
78324;SDS011;67584;51.400;6.692;2023-07-20T14:48:57;2.13;;;1.55;;
78324;SDS011;67584;51.400;6.692;2023-07-20T14:51:23;2.83;;;1.75;;
78324;SDS011;67584;51.400;6.692;2023-07-20T14:53:49;2.17;;;2.08;;
78324;SDS011;67584;51.400;6.692;2023-07-20T14:56:15;1.80;;;1.70;;
78324;SDS011;67584;51.400;6.692;2023-07-20T14:58:40;2.08;;;1.80;;
78324;SDS011;67584;51.400;6.692;2023-07-20T15:01:06;2.15;;;1.95;;
78324;SDS011;67584;51.400;6.692;2023-07-20T15:03:31;2.00;;;1.73;;
78324;SDS011;67584;51.400;6.692;2023-07-20T15:05:57;2.00;;;1.80;;
78324;SDS011;67584;51.400;6.692;2023-07-20T15:08:23;2.45;;;2.03;;
78324;SDS011;67584;51.400;6.692;2023-07-20T15:10:49;2.38;;;1.83;;